| time (UTC) | temp F | wind direction | speed knots | gust knots | rain 1hr in | rain 24hr in | rain mn in | humidity % | barometer mb |
| 20260509013204 | 55 | 211 | 1.7 | 2.6 | 0.00 | 0.00 | 0.00 | 87 | 1012.7 |
| 20260509010204 | 55 | 232 | 1.7 | 2.6 | 0.00 | 0.00 | 0.00 | 87 | 1012.7 |
| 20260509003203 | 56 | 232 | 1.7 | 2.6 | 0.00 | 0.00 | 0.00 | 86 | 1012.4 |
| 20260508233704 | 59 | 223 | 0.9 | 2.6 | 0.00 | 0.00 | 0.00 | 81 | 1012.0 |
| 20260508230703 | 59 | 223 | 0.0 | 0.9 | 0.00 | 0.00 | 0.00 | 80 | 1011.8 |
| 20260508230204 | 60 | 223 | 0.9 | 2.6 | 0.00 | 0.00 | 0.00 | 79 | 1012.0 |
| 20260508223703 | 61 | 111 | 0.9 | 2.6 | 0.00 | 0.00 | 0.00 | 73 | 1011.8 |
| 20260508220703 | 62 | 32 | 0.9 | 2.6 | 0.00 | 0.00 | 0.00 | 65 | 1012.0 |
| 20260508213704 | 62 | 339 | 0.9 | 4.3 | 0.00 | 0.00 | 0.00 | 65 | 1012.0 |
| 20260508213204 | 62 | 359 | 2.6 | 7.0 | 0.00 | 0.00 | 0.00 | 64 | 1012.0 |
| 20260508210203 | 63 | 170 | 1.7 | 5.2 | 0.00 | 0.00 | 0.00 | 70 | 1011.9 |
| 20260508203203 | 63 | 351 | 1.7 | 5.2 | 0.00 | 0.00 | 0.00 | 71 | 1012.2 |
| 20260508200703 | 64 | 181 | 0.0 | 4.3 | 0.00 | 0.00 | 0.00 | 61 | 1012.3 |
| 20260508193204 | 65 | 335 | 0.9 | 6.1 | 0.00 | 0.00 | 0.00 | 59 | 1013.1 |
| 20260508190703 | 65 | 64 | 0.9 | 2.6 | 0.00 | 0.00 | 0.00 | 49 | 1013.5 |
| 20260508190203 | 65 | 87 | 2.6 | 11.3 | 0.00 | 0.00 | 0.00 | 52 | 1013.4 |
| 20260508183204 | 65 | 43 | 1.7 | 10.4 | 0.00 | 0.00 | 0.00 | 45 | 1013.7 |
| 20260508180204 | 65 | 344 | 2.6 | 10.4 | 0.00 | 0.00 | 0.00 | 52 | 1013.8 |
| 20260508160203 | 58 | 340 | 1.7 | 10.4 | 0.00 | 0.00 | 0.00 | 72 | 1015.3 |
| 20260508153205 | 55 | 335 | 1.7 | 7.0 | 0.00 | 0.00 | 0.00 | 74 | 1015.7 |
| 20260508150204 | 52 | 23 | 0.0 | 2.6 | 0.00 | 0.00 | 0.00 | 77 | 1015.9 |
| 20260508140203 | 48 | 337 | 0.9 | 4.3 | 0.00 | 0.00 | 0.00 | 82 | 1016.4 |
| 20260508133204 | 47 | 251 | 0.0 | 2.6 | 0.00 | 0.00 | 0.00 | 87 | 1016.4 |
| 20260508130704 | 46 | 304 | 0.0 | 1.7 | 0.00 | 0.00 | 0.00 | 92 | 1016.5 |
| 20260508130203 | 45 | 304 | 0.9 | 2.6 | 0.00 | 0.00 | 0.00 | 93 | 1016.4 |
| 20260508123704 | 44 | 198 | 0.0 | 0.0 | 0.00 | 0.00 | 0.00 | 93 | 1016.2 |
| 20260508123204 | 44 | 198 | 0.0 | 0.0 | 0.00 | 0.00 | 0.00 | 93 | 1016.1 |
| 20260508120704 | 43 | 198 | 0.0 | 0.0 | 0.00 | 0.00 | 0.00 | 94 | 1015.8 |
| 20260508120205 | 43 | 198 | 0.0 | 0.0 | 0.00 | 0.00 | 0.00 | 94 | 1015.8 |
| 20260508110704 | 42 | 198 | 0.0 | 0.9 | 0.00 | 0.06 | 0.00 | 94 | 1014.9 |
| 20260508110203 | 42 | 198 | 1.7 | 2.6 | 0.00 | 0.08 | 0.00 | 95 | 1014.8 |
| 20260508103203 | 42 | 198 | 1.7 | 2.6 | 0.00 | 0.17 | 0.00 | 95 | 1014.5 |
| 20260508093704 | 43 | 198 | 1.7 | 2.6 | 0.00 | 0.18 | 0.00 | 94 | 1013.9 |
| 20260508090703 | 44 | 198 | 1.7 | 2.6 | 0.00 | 0.18 | 0.00 | 94 | 1013.9 |
| 20260508090203 | 44 | 198 | 1.7 | 2.6 | 0.00 | 0.18 | 0.00 | 93 | 1013.9 |
| 20260508070203 | 46 | 180 | 1.7 | 2.6 | 0.00 | 0.18 | 0.00 | 94 | 1013.3 |
| 20260508060703 | 45 | 180 | 1.7 | 2.6 | 0.00 | 0.19 | 0.00 | 96 | 1013.1 |
| 20260508053703 | 46 | 180 | 0.0 | 0.0 | 0.00 | 0.19 | 0.00 | 94 | 1012.8 |
| 20260508053203 | 46 | 180 | 0.9 | 2.6 | 0.00 | 0.19 | 0.00 | 94 | 1012.8 |
| 20260508050704 | 46 | 178 | 0.9 | 2.6 | 0.00 | 0.19 | 0.00 | 94 | 1012.9 |
| 20260508050203 | 46 | 178 | 0.0 | 2.6 | 0.00 | 0.20 | 0.00 | 94 | 1012.9 |
| 20260508040704 | 47 | 178 | 2.6 | 2.6 | 0.00 | 0.28 | 0.00 | 94 | 1012.5 |
| 20260508040204 | 47 | 178 | 1.7 | 2.6 | 0.00 | 0.28 | 0.00 | 94 | 1012.4 |
| 20260508033704 | 47 | 219 | 1.7 | 2.6 | 0.00 | 0.34 | 0.28 | 94 | 1012.5 |
| 20260508033204 | 47 | 219 | 1.7 | 2.6 | 0.00 | 0.34 | 0.28 | 95 | 1012.6 |
| 20260508030203 | 47 | 219 | 1.7 | 2.6 | 0.00 | 0.34 | 0.28 | 94 | 1012.5 |
| 20260508023203 | 47 | 219 | 1.7 | 2.6 | 0.00 | 0.34 | 0.28 | 94 | 1012.3 |
| 20260508020704 | 48 | 219 | 1.7 | 2.6 | 0.00 | 0.34 | 0.28 | 95 | 1011.7 |